Wetterdaten: Mittwoch, 03.06.2015
Datum Zeit Temp. A. Feuchte A. Luftdruck Regen Wind Richtung Richtung Sonnenschein ET UV Solar Taupunkt Windchill Windben Empfang
03.06.2015 00:00 17,9 C 73 % 1017,7 hPa 0,0 l/m 0,0 km/h (0 Bft) S 180 0 min 0,000 mm 0,0 UV-I 0 W/m 13,0 C 17,9 C 0,0 km/h (0 Bft) 0,00 %
03.06.2015 01:00 16,0 C 79 % 1018,0 hPa 0,0 l/m 0,0 km/h (0 Bft) S 180 0 min 0,000 mm 0,0 UV-I 0 W/m 12,4 C 16,0 C 0,0 km/h (0 Bft) 0,00 %
03.06.2015 02:00 15,4 C 82 % 1018,4 hPa 0,0 l/m 0,0 km/h (0 Bft) S 180 0 min 0,000 mm 0,0 UV-I 0 W/m 12,3 C 15,4 C 0,0 km/h (0 Bft) 0,00 %
03.06.2015 03:00 14,5 C 88 % 1018,6 hPa 0,0 l/m 0,0 km/h (0 Bft) S 180 0 min 0,000 mm 0,0 UV-I 0 W/m 12,5 C 14,5 C 0,0 km/h (0 Bft) 0,00 %
03.06.2015 04:00 14,5 C 89 % 1019,0 hPa 0,0 l/m 0,0 km/h (0 Bft) S 180 0 min 0,000 mm 0,0 UV-I 0 W/m 12,7 C 14,5 C 0,0 km/h (0 Bft) 0,00 %
03.06.2015 05:00 14,4 C 87 % 1019,3 hPa 0,0 l/m 0,0 km/h (0 Bft) S 180 0 min 0,000 mm 0,0 UV-I 0 W/m 12,3 C 14,4 C 0,0 km/h (0 Bft) 0,00 %
03.06.2015 06:00 14,3 C 88 % 1019,7 hPa 0,0 l/m 0,0 km/h (0 Bft) S 180 0 min 0,000 mm 0,0 UV-I 53 W/m 12,3 C 14,3 C 0,0 km/h (0 Bft) 0,00 %
03.06.2015 07:00 21,4 C 59 % 1019,0 hPa 0,0 l/m 0,0 km/h (0 Bft) S 180 60 min 0,000 mm 1,0 UV-I 411 W/m 13,0 C 21,4 C 0,0 km/h (0 Bft) 0,00 %
03.06.2015 08:00 23,2 C 54 % 1019,0 hPa 0,0 l/m 0,0 km/h (0 Bft) S-SO 150 60 min 0,000 mm 2,0 UV-I 501 W/m 13,4 C 23,2 C 0,0 km/h (0 Bft) 0,00 %
03.06.2015 09:00 24,5 C 50 % 1019,6 hPa 0,0 l/m 0,6 km/h (0 Bft) S 180 60 min 0,000 mm 2,0 UV-I 569 W/m 13,4 C 24,5 C 4,0 km/h (1 Bft) 0,00 %
03.06.2015 10:00 26,4 C 47 % 1019,3 hPa 0,0 l/m 0,0 km/h (0 Bft) S 180 60 min 0,000 mm 3,0 UV-I 672 W/m 14,2 C 26,4 C 0,0 km/h (0 Bft) 0,00 %
03.06.2015 11:00 27,3 C 45 % 1019,2 hPa 0,0 l/m 0,0 km/h (0 Bft) SW 220 60 min 0,000 mm 4,0 UV-I 763 W/m 14,3 C 27,3 C 4,0 km/h (1 Bft) 0,00 %
03.06.2015 12:00 27,6 C 42 % 1019,1 hPa 0,0 l/m 0,0 km/h (0 Bft) W-SW 240 60 min 0,000 mm 6,0 UV-I 835 W/m 13,5 C 27,6 C 0,0 km/h (0 Bft) 0,00 %
03.06.2015 13:00 29,2 C 39 % 1018,6 hPa 0,0 l/m 0,0 km/h (0 Bft) O-SO 120 60 min 0,000 mm 7,0 UV-I 968 W/m 13,8 C 29,2 C 0,0 km/h (0 Bft) 0,00 %
03.06.2015 14:00 29,3 C 30 % 1018,1 hPa 0,0 l/m 0,0 km/h (0 Bft) S 190 60 min 0,000 mm 6,0 UV-I 932 W/m 9,9 C 29,3 C 0,0 km/h (0 Bft) 0,00 %
03.06.2015 15:00 29,8 C 29 % 1017,8 hPa 0,0 l/m 4,0 km/h (1 Bft) W 270 60 min 0,000 mm 5,0 UV-I 948 W/m 9,8 C 29,8 C 7,9 km/h (2 Bft) 0,00 %
03.06.2015 16:00 30,5 C 29 % 1017,4 hPa 0,0 l/m 0,6 km/h (0 Bft) S-SW 195 60 min 0,000 mm 4,0 UV-I 928 W/m 10,4 C 30,5 C 4,0 km/h (1 Bft) 0,00 %
03.06.2015 17:00 30,8 C 31 % 1016,9 hPa 0,0 l/m 0,6 km/h (0 Bft) S-SW 210 60 min 0,000 mm 2,0 UV-I 891 W/m 11,7 C 30,8 C 4,0 km/h (1 Bft) 0,00 %
03.06.2015 18:00 30,0 C 31 % 1016,3 hPa 0,0 l/m 0,3 km/h (0 Bft) W-SW 240 60 min 0,000 mm 1,0 UV-I 759 W/m 11,0 C 30,0 C 4,0 km/h (1 Bft) 0,00 %
03.06.2015 19:00 29,0 C 35 % 1016,8 hPa 0,0 l/m 0,0 km/h (0 Bft) S-SW 200 60 min 0,000 mm 1,0 UV-I 549 W/m 12,0 C 29,0 C 0,0 km/h (0 Bft) 0,00 %
03.06.2015 20:00 28,7 C 37 % 1017,2 hPa 0,0 l/m 0,0 km/h (0 Bft) S-SW 210 60 min 0,000 mm 0,0 UV-I 234 W/m 12,5 C 28,7 C 0,0 km/h (0 Bft) 0,00 %
03.06.2015 21:00 24,0 C 52 % 1018,3 hPa 0,0 l/m 0,0 km/h (0 Bft) S 180 0 min 0,000 mm 0,0 UV-I 0 W/m 13,5 C 24,0 C 0,0 km/h (0 Bft) 0,00 %
03.06.2015 22:00 21,0 C 61 % 1019,8 hPa 0,0 l/m 0,0 km/h (0 Bft) O-SO 120 0 min 0,000 mm 0,0 UV-I 0 W/m 13,2 C 21,0 C 0,0 km/h (0 Bft) 0,00 %
03.06.2015 23:00 20,3 C 68 % 1020,2 hPa 0,0 l/m 0,0 km/h (0 Bft) W-SW 245 0 min 0,000 mm 0,0 UV-I 0 W/m 14,2 C 20,3 C 0,0 km/h (0 Bft) 0,00 %
_ Min-Zeit 06:00 15:00 18:00 - 00:00 - - - - - - 15:00 06:00 00:00 00:00
Minimum _ 14,3 C 29 % 1016,3 hPa - 0,0 km/h (0 Bft) - - - - - - 9,8 C 14,3 C 0,0 km/h (0 Bft) 0,00 %
_ Max-Zeit 17:00 04:00 23:00 00:00 15:00 - - 07:00 00:00 13:00 13:00 11:00 17:00 15:00 00:00
Maximum _ 30,8 C 89 % 1020,2 hPa 0,0 l/m 4,0 km/h
W (1 Bft)
- - 60 min 0,000 mm 7,0 UV-I 968 W/m 14,3 C 30,8 C 7,9 km/h
W (2 Bft)
0,00 %
Durchschnitt _ 23,6 C 54 % 1018,5 hPa #0,0 l/m 0,3 km/h (0 Bft) W - #14:00 h #0,000 mm 3,4 UV-I 668 W/m 12,5 C 23,6 C 1,2 km/h (1 Bft) 0,00 %